Time;durP1;ratioP1;P1;durP2;ratioP2;P2;SDS_P1;SDS_P2;PMS_P1;PMS_P2;Temp;Humidity;BMP_temperature;BMP_pressure;BME280_temperature;BME280_humidity;BME280_pressure;Samples;Min_cycle;Max_cycle;Signal;HPM_P1;HPM_P2
2022/03/05 00:00:48;;;;;;;20.70;13.70;;;;;;;1.19;78.78;102067.97;5135166;27;20055;-36
2022/03/05 00:03:13;;;;;;;18.70;13.83;;;;;;;1.19;78.34;102065.28;5133995;27;20034;-36
2022/03/05 00:05:40;;;;;;;19.90;13.67;;;;;;;1.18;77.97;102063.63;5135051;27;20023;-36
2022/03/05 00:08:06;;;;;;;21.42;13.63;;;;;;;1.30;78.39;102061.66;5134197;27;20026;-36
2022/03/05 00:10:31;;;;;;;20.35;14.48;;;;;;;1.23;78.46;102056.03;5134163;27;20019;-36
2022/03/05 00:12:57;;;;;;;20.42;14.63;;;;;;;1.20;78.36;102058.16;5133726;27;20072;-36
2022/03/05 00:15:26;;;;;;;20.25;14.13;;;;;;;1.07;78.45;102047.75;5133983;27;20087;-36
2022/03/05 00:17:52;;;;;;;21.05;14.13;;;;;;;1.16;79.21;102075.38;5133645;27;20055;-36
2022/03/05 00:20:20;;;;;;;21.65;15.02;;;;;;;1.07;79.11;102070.88;5134275;27;20031;-36
2022/03/05 00:22:47;;;;;;;22.23;14.90;;;;;;;1.02;79.78;102065.97;5133903;27;20023;-36
2022/03/05 00:25:13;;;;;;;21.38;14.95;;;;;;;0.95;79.29;102065.69;5133856;27;20019;-36
2022/03/05 00:27:39;;;;;;;21.98;15.30;;;;;;;0.96;80.16;102063.88;5133574;27;20039;-36
2022/03/05 00:30:05;;;;;;;21.45;14.93;;;;;;;1.03;80.14;102070.34;5134359;27;20027;-36
2022/03/05 00:32:31;;;;;;;24.60;16.02;;;;;;;0.88;79.42;102056.59;5133400;27;20023;-36
2022/03/05 00:34:56;;;;;;;21.95;15.20;;;;;;;0.89;80.56;102055.59;5134467;27;20027;-36
2022/03/05 00:37:22;;;;;;;24.43;17.00;;;;;;;0.82;81.09;102078.41;5133300;27;20038;-36
2022/03/05 00:39:47;;;;;;;21.90;15.17;;;;;;;0.85;81.54;102061.34;5133978;27;20023;-36
2022/03/05 00:42:13;;;;;;;23.07;16.10;;;;;;;0.88;81.01;102071.69;5140576;27;20102;-36
2022/03/05 00:44:39;;;;;;;22.58;15.77;;;;;;;0.72;80.95;102058.91;5141610;27;20050;-36
2022/03/05 00:47:04;;;;;;;26.85;18.27;;;;;;;0.66;81.34;102051.50;5140090;27;20130;-36
2022/03/05 00:49:29;;;;;;;24.93;17.97;;;;;;;0.74;81.80;102071.13;5140890;27;20076;-36
2022/03/05 00:51:55;;;;;;;21.03;15.17;;;;;;;0.80;81.25;102068.91;5138985;27;20388;-36
2022/03/05 00:54:20;;;;;;;23.70;15.67;;;;;;;0.82;80.61;102062.44;5140469;27;20019;-36
2022/03/05 00:56:46;;;;;;;22.25;15.18;;;;;;;0.75;81.13;102053.34;5140354;27;20030;-36
2022/03/05 00:59:12;;;;;;;27.67;17.20;;;;;;;0.81;81.27;102066.09;5140160;27;20027;-36
2022/03/05 01:01:38;;;;;;;;;;;;;;;0.79;81.06;102068.06;5140898;27;20508;-36
2022/03/05 01:04:03;;;;;;;21.80;15.02;;;;;;;0.65;81.26;102060.47;5140568;27;19907;-38
2022/03/05 01:06:30;;;;;;;24.93;16.50;;;;;;;0.76;81.46;102065.66;5140555;27;20034;-36
2022/03/05 01:08:56;;;;;;;25.27;17.38;;;;;;;0.70;81.08;102069.72;5140476;27;20042;-36
2022/03/05 01:11:22;;;;;;;26.27;17.60;;;;;;;0.76;80.97;102061.19;5140010;27;20031;-36
2022/03/05 01:13:48;;;;;;;22.17;16.88;;;;;;;0.66;81.85;102064.81;5140244;27;20076;-36
2022/03/05 01:16:13;;;;;;;25.52;17.83;;;;;;;0.50;82.13;102047.53;5140179;27;20084;-36
2022/03/05 01:18:39;;;;;;;22.60;15.68;;;;;;;0.60;82.08;102065.34;5140395;27;20129;-36
2022/03/05 01:21:04;;;;;;;22.43;15.70;;;;;;;0.61;82.35;102057.22;5139990;27;20115;-36
2022/03/05 01:23:29;;;;;;;27.07;18.07;;;;;;;0.52;82.51;102066.84;5139850;27;20023;-36
2022/03/05 01:25:55;;;;;;;23.30;16.77;;;;;;;0.50;81.76;102052.03;5140504;27;20027;-36
2022/03/05 01:28:20;;;;;;;25.10;17.13;;;;;;;0.59;81.87;102061.00;5140031;27;20019;-36
2022/03/05 01:30:46;;;;;;;22.77;15.23;;;;;;;0.54;82.24;102049.91;5140260;27;20107;-36
2022/03/05 01:33:15;;;;;;;25.27;16.83;;;;;;;0.59;82.01;102055.69;5140110;27;20467;-36
2022/03/05 01:35:48;;;;;;;24.05;16.67;;;;;;;0.48;81.60;102056.63;5140938;27;20019;-36
2022/03/05 01:38:14;;;;;;;24.40;16.38;;;;;;;0.56;82.39;102055.94;5140128;27;20061;-36
2022/03/05 01:40:40;;;;;;;24.50;16.25;;;;;;;0.37;82.36;102046.91;5140203;27;20062;-36
2022/03/05 01:43:05;;;;;;;24.20;16.48;;;;;;;0.50;82.75;102065.31;5140305;27;20086;-36
2022/03/05 01:45:31;;;;;;;24.43;16.83;;;;;;;0.49;82.70;102053.00;5140025;27;20031;-36
2022/03/05 01:47:58;;;;;;;22.80;16.02;;;;;;;0.30;82.92;102035.16;5140229;27;20281;-36
2022/03/05 01:50:24;;;;;;;25.75;16.58;;;;;;;0.44;82.78;102056.06;5139864;27;20528;-36
2022/03/05 01:52:49;;;;;;;24.25;17.13;;;;;;;0.28;82.56;102060.19;5136436;27;20023;-36
2022/03/05 01:55:15;;;;;;;24.23;16.10;;;;;;;0.30;83.08;102051.13;5137468;27;20086;-36
2022/03/05 01:57:41;;;;;;;24.27;17.60;;;;;;;0.33;82.90;102061.47;5136629;27;20080;-36
2022/03/05 02:00:09;;;;;;;26.00;16.37;;;;;;;0.36;83.22;102057.72;5137126;27;20440;-36
2022/03/05 02:02:34;;;;;;;21.35;15.30;;;;;;;0.28;82.72;102049.53;5135335;27;20118;-36
2022/03/05 02:04:59;;;;;;;25.77;16.47;;;;;;;0.36;83.42;102063.03;5137128;27;20027;-36
2022/03/05 02:07:25;;;;;;;24.57;16.90;;;;;;;0.31;82.73;102057.28;5136420;27;20424;-36
2022/03/05 02:09:51;;;;;;;23.23;15.97;;;;;;;0.33;83.11;102057.97;5135406;27;20030;-36
2022/03/05 02:12:16;;;;;;;23.42;15.63;;;;;;;0.32;82.95;102059.78;5136491;27;20360;-36
2022/03/05 02:14:42;;;;;;;20.83;15.33;;;;;;;0.24;82.51;102055.16;5136631;27;20038;-36
2022/03/05 02:17:07;;;;;;;26.60;16.57;;;;;;;0.20;82.61;102044.91;5135989;27;20020;-36
2022/03/05 02:19:33;;;;;;;23.90;16.73;;;;;;;0.31;82.53;102051.94;5136187;27;20027;-36
2022/03/05 02:21:59;;;;;;;25.67;17.13;;;;;;;0.22;83.28;102053.59;5135860;27;20046;-36
2022/03/05 02:24:34;;;;;;;23.17;16.48;;;;;;;0.20;82.88;102053.75;5136341;27;20027;-36
2022/03/05 02:27:01;;;;;;;23.15;15.90;;;;;;;0.20;83.03;102050.25;5136253;27;20487;-36
2022/03/05 02:29:26;;;;;;;24.55;16.77;;;;;;;0.00;83.11;102038.66;5135771;27;20572;-36
2022/03/05 02:31:53;;;;;;;26.57;17.47;;;;;;;0.14;83.37;102043.59;5136613;27;20059;-36
2022/03/05 02:34:19;;;;;;;23.85;16.90;;;;;;;0.05;83.82;102047.09;5136698;27;20281;-36
2022/03/05 02:36:44;;;;;;;25.57;17.00;;;;;;;-0.12;83.90;102039.72;5136647;27;20532;-36
2022/03/05 02:39:09;;;;;;;27.27;17.97;;;;;;;-0.19;84.72;102041.22;5136323;27;20030;-36
2022/03/05 02:41:35;;;;;;;26.47;16.77;;;;;;;-0.17;84.93;102041.94;5135672;27;20391;-36
2022/03/05 02:44:00;;;;;;;26.60;16.70;;;;;;;-0.15;84.43;102046.13;5135652;27;20381;-36
2022/03/05 02:46:28;;;;;;;26.30;17.13;;;;;;;-0.19;84.55;102044.72;5136304;27;20459;-36
2022/03/05 02:48:53;;;;;;;27.77;18.80;;;;;;;-0.24;84.65;102041.63;5136161;27;20028;-36
2022/03/05 02:51:20;;;;;;;21.47;15.83;;;;;;;-0.18;85.23;102034.94;5135671;27;20049;-36
2022/03/05 02:53:46;;;;;;;26.20;16.30;;;;;;;-0.18;85.15;102046.41;5134992;27;20023;-36
2022/03/05 02:56:11;;;;;;;24.92;17.05;;;;;;;-0.23;85.09;102034.47;5136010;27;20365;-36
2022/03/05 02:58:37;;;;;;;27.47;17.67;;;;;;;-0.22;84.39;102044.97;5135520;27;20019;-36
2022/03/05 03:01:02;;;;;;;25.30;17.00;;;;;;;-0.18;84.74;102040.25;5135609;27;20020;-36
2022/03/05 03:03:27;;;;;;;23.53;16.93;;;;;;;-0.36;85.30;102024.88;5135368;27;20019;-36
2022/03/05 03:05:53;;;;;;;23.30;15.87;;;;;;;-0.26;85.85;102039.06;5135970;27;20029;-36
2022/03/05 03:08:18;;;;;;;22.20;15.70;;;;;;;-0.13;85.99;102038.88;5135587;27;20027;-36
2022/03/05 03:10:43;;;;;;;24.63;16.60;;;;;;;-0.20;85.15;102037.69;5135360;27;20027;-36
2022/03/05 03:13:08;;;;;;;25.57;16.57;;;;;;;-0.28;84.46;102021.59;5135305;27;20385;-36
2022/03/05 03:15:34;;;;;;;25.57;17.17;;;;;;;-0.20;85.44;102032.38;5135764;27;20520;-36
2022/03/05 03:17:59;;;;;;;23.50;15.80;;;;;;;-0.21;85.39;102038.69;5135381;27;20088;-36
2022/03/05 03:20:26;;;;;;;23.03;15.67;;;;;;;-0.19;85.52;102030.59;5135136;27;20023;-36
2022/03/05 03:22:52;;;;;;;23.90;16.60;;;;;;;-0.20;84.74;102028.88;5135025;27;20084;-36
2022/03/05 03:25:18;;;;;;;23.88;16.38;;;;;;;-0.19;84.79;102031.44;5135796;27;20035;-36
2022/03/05 03:27:44;;;;;;;25.60;16.75;;;;;;;-0.18;84.39;102029.63;5134789;27;20459;-36
2022/03/05 03:30:11;;;;;;;25.38;17.05;;;;;;;-0.27;83.32;102024.09;5134668;27;20034;-36
2022/03/05 03:32:37;;;;;;;24.77;16.52;;;;;;;-0.45;83.76;101998.25;5134549;27;20023;-36
2022/03/05 03:35:05;;;;;;;20.77;14.93;;;;;;;-0.35;83.21;102020.41;5135580;27;20478;-36
2022/03/05 03:37:31;;;;;;;21.60;14.95;;;;;;;-0.26;84.77;102035.56;5134419;27;20059;-36
2022/03/05 03:39:57;;;;;;;22.10;14.82;;;;;;;-0.30;84.12;102031.50;5135395;27;20034;-35
2022/03/05 03:42:24;;;;;;;22.92;15.80;;;;;;;-0.41;83.56;102029.75;5135059;27;20088;-35
2022/03/05 03:44:49;;;;;;;;;;;;;;;-0.34;83.34;102030.94;5135924;27;20058;-35
2022/03/05 03:47:15;;;;;;;27.27;16.30;;;;;;;-0.48;83.55;102044.53;5134477;27;19919;-35
2022/03/05 03:49:40;;;;;;;26.50;16.87;;;;;;;-0.50;84.42;102043.81;5135440;27;20034;-35
2022/03/05 03:52:06;;;;;;;25.40;16.27;;;;;;;-0.65;84.40;102019.38;5134312;27;20279;-35
2022/03/05 03:54:31;;;;;;;23.63;16.07;;;;;;;-0.52;83.67;102040.47;5135471;27;20027;-35
2022/03/05 03:56:57;;;;;;;25.67;17.15;;;;;;;-0.63;84.58;102024.59;5134630;27;20295;-35
2022/03/05 03:59:22;;;;;;;25.10;16.80;;;;;;;-0.59;83.81;102039.28;5134661;27;20470;-35
2022/03/05 04:01:47;;;;;;;24.37;16.60;;;;;;;-0.72;83.55;102028.00;5135028;27;20465;-36
2022/03/05 04:04:13;;;;;;;25.27;16.80;;;;;;;-0.65;84.05;102037.13;5134447;27;20019;-36
2022/03/05 04:09:22;;;;;;;22.98;15.95;;;;;;;-0.62;85.14;102042.22;5134432;27;20064;-36
2022/03/05 04:11:48;;;;;;;24.93;16.77;;;;;;;-0.76;84.50;102013.28;5134762;27;20102;-36
2022/03/05 04:14:13;;;;;;;27.03;16.17;;;;;;;-0.71;84.51;102027.88;5135125;27;20433;-36
2022/03/05 04:16:39;;;;;;;23.20;15.97;;;;;;;-0.67;84.62;102039.09;5134315;27;20380;-36
2022/03/05 04:19:04;;;;;;;22.20;15.90;;;;;;;-0.61;85.19;102041.22;5134778;27;20281;-36
2022/03/05 04:21:29;;;;;;;23.30;15.00;;;;;;;-0.57;86.19;102037.34;5134553;27;20102;-36
2022/03/05 04:23:55;;;;;;;23.60;14.73;;;;;;;-0.61;85.86;102031.44;5134270;27;20042;-36
2022/03/05 04:26:20;;;;;;;23.27;16.40;;;;;;;-0.70;84.90;102036.69;5134949;27;20034;-36
2022/03/05 04:28:45;;;;;;;27.63;17.00;;;;;;;-0.71;84.98;102048.28;5134118;27;20023;-36
2022/03/05 04:31:11;;;;;;;24.00;16.27;;;;;;;-0.95;84.88;102022.78;5134172;27;20420;-36
2022/03/05 04:33:36;;;;;;;25.57;16.40;;;;;;;-0.82;85.30;102044.72;5134099;27;20104;-36
2022/03/05 04:36:01;;;;;;;25.37;16.07;;;;;;;-0.92;84.91;102027.84;5133983;27;20023;-36
2022/03/05 04:38:27;;;;;;;23.73;15.63;;;;;;;-0.86;85.38;102055.72;5134065;27;20107;-36
2022/03/05 04:40:53;;;;;;;28.60;18.98;;;;;;;-0.98;85.69;102054.91;5134694;27;20468;-36
2022/03/05 04:43:18;;;;;;;27.23;17.87;;;;;;;-0.88;86.48;102054.97;5133954;27;20090;-36
2022/03/05 04:45:44;;;;;;;24.60;17.97;;;;;;;-0.96;86.35;102055.63;5134193;27;20138;-36
2022/03/05 04:48:09;;;;;;;28.33;17.90;;;;;;;-1.06;86.00;102055.53;5134043;27;20039;-36
2022/03/05 04:50:34;;;;;;;26.57;16.87;;;;;;;-1.12;87.08;102040.13;5133930;27;20038;-36
2022/03/05 04:53:00;;;;;;;26.90;16.83;;;;;;;-1.01;87.40;102063.13;5133772;27;20073;-36
2022/03/05 04:55:26;;;;;;;29.85;18.52;;;;;;;-1.12;87.93;102065.84;5134397;27;20046;-36
2022/03/05 04:57:51;;;;;;;29.38;17.67;;;;;;;-1.10;86.74;102054.09;5134183;27;20030;-36
2022/03/05 05:00:16;;;;;;;29.43;18.63;;;;;;;-1.17;87.67;102062.69;5134077;27;20416;-36
2022/03/05 05:02:42;;;;;;;30.00;18.20;;;;;;;-1.10;88.08;102066.53;5133495;27;20477;-36
2022/03/05 05:05:08;;;;;;;25.73;17.70;;;;;;;-1.15;87.21;102053.63;5133382;27;20054;-35
2022/03/05 05:07:33;;;;;;;30.00;18.98;;;;;;;-1.10;88.20;102058.56;5133617;27;20118;-36
2022/03/05 05:09:59;;;;;;;31.60;20.57;;;;;;;-1.20;87.49;102061.13;5134547;27;20061;-35
2022/03/05 05:12:24;;;;;;;34.87;20.93;;;;;;;-1.43;88.73;102052.38;5133910;27;20280;-36
2022/03/05 05:14:52;;;;;;;27.20;17.77;;;;;;;-1.31;88.03;102069.13;5134026;27;20023;-36
2022/03/05 05:17:17;;;;;;;30.25;19.65;;;;;;;-1.31;89.00;102067.31;5133774;27;20015;-36
2022/03/05 05:19:42;;;;;;;28.47;18.40;;;;;;;-1.34;88.83;102070.19;5133863;27;20042;-36
2022/03/05 05:22:08;;;;;;;29.57;17.57;;;;;;;-1.27;88.73;102072.34;5133606;27;20088;-36
2022/03/05 05:24:35;;;;;;;30.10;19.00;;;;;;;-1.43;88.50;102055.00;5133657;27;20023;-35
2022/03/05 05:27:02;;;;;;;29.15;19.20;;;;;;;-1.39;88.91;102069.72;5133780;27;20112;-35
2022/03/05 05:29:27;;;;;;;31.98;19.55;;;;;;;-1.43;88.47;102073.59;5137726;27;20037;-35
2022/03/05 05:31:55;;;;;;;30.80;19.00;;;;;;;-1.47;89.93;102064.19;5137324;27;20110;-36
2022/03/05 05:34:20;;;;;;;31.35;19.83;;;;;;;-1.61;89.83;102046.75;5138043;27;20083;-36
2022/03/05 05:36:46;;;;;;;33.63;20.30;;;;;;;-1.46;90.10;102089.78;5136877;27;20420;-35
2022/03/05 05:39:12;;;;;;;36.63;22.47;;;;;;;-1.64;90.89;102075.31;5136998;27;20345;-35
2022/03/05 05:41:38;;;;;;;28.85;18.83;;;;;;;-1.59;90.24;102079.28;5137477;27;20051;-36
2022/03/05 05:44:06;;;;;;;31.40;19.40;;;;;;;-1.53;90.72;102075.28;5137739;27;20100;-36
2022/03/05 05:46:31;;;;;;;36.72;21.73;;;;;;;-1.57;89.93;102077.34;5137351;27;20110;-36
2022/03/05 05:48:57;;;;;;;29.63;19.73;;;;;;;-1.53;90.28;102091.22;5136886;27;20356;-35
2022/03/05 05:51:27;;;;;;;31.58;19.55;;;;;;;-1.40;89.95;102093.75;5137648;27;20055;-35
2022/03/05 05:53:53;;;;;;;28.33;18.83;;;;;;;-1.46;90.07;102092.44;5136832;27;20031;-35
2022/03/05 05:56:19;;;;;;;34.17;21.20;;;;;;;-1.49;89.93;102095.31;5136737;27;20031;-35
2022/03/05 05:58:45;;;;;;;28.67;17.45;;;;;;;-1.48;90.25;102080.22;5137422;27;20027;-36
2022/03/05 06:01:10;;;;;;;30.67;19.13;;;;;;;-1.38;89.95;102091.78;5136816;27;20031;-36
2022/03/05 06:03:36;;;;;;;35.87;21.60;;;;;;;-1.52;89.87;102090.25;5136642;27;20019;-36
2022/03/05 06:06:01;;;;;;;31.97;19.07;;;;;;;-1.53;90.17;102085.06;5136856;27;20591;-36
2022/03/05 06:08:27;;;;;;;31.13;18.70;;;;;;;-1.44;90.18;102087.00;5136476;27;20502;-35
2022/03/05 06:10:54;;;;;;;30.27;18.75;;;;;;;-1.48;90.59;102086.38;5136512;27;20117;-36
2022/03/05 06:13:20;;;;;;;31.92;19.45;;;;;;;-1.45;89.66;102091.47;5136901;27;20323;-35
2022/03/05 06:15:45;;;;;;;31.08;19.98;;;;;;;-1.46;89.71;102079.16;5136726;27;20080;-36
2022/03/05 06:18:10;;;;;;;34.07;19.70;;;;;;;-1.36;90.23;102087.22;5136254;27;20023;-36
2022/03/05 06:20:36;;;;;;;34.37;20.07;;;;;;;-1.41;89.79;102084.94;5136445;27;20125;-36
2022/03/05 06:23:02;;;;;;;33.28;20.15;;;;;;;-1.41;90.12;102087.59;5136731;27;20034;-35
2022/03/05 06:25:28;;;;;;;30.67;19.55;;;;;;;-1.42;90.29;102096.50;5136047;27;20166;-36
2022/03/05 06:27:53;;;;;;;33.97;20.40;;;;;;;-1.37;90.18;102094.31;5136568;27;20027;-36
2022/03/05 06:30:18;;;;;;;30.33;17.57;;;;;;;-1.32;89.65;102092.16;5136076;27;20404;-36
2022/03/05 06:32:44;;;;;;;31.93;18.80;;;;;;;-1.34;89.45;102094.09;5135813;27;20080;-35
2022/03/05 06:35:09;;;;;;;32.67;18.10;;;;;;;-1.36;89.49;102093.38;5136058;27;20027;-36
2022/03/05 06:37:35;;;;;;;31.20;19.02;;;;;;;-1.31;89.23;102096.50;5135633;27;20035;-36
2022/03/05 06:40:01;;;;;;;34.67;20.40;;;;;;;-1.36;89.14;102089.88;5136483;27;20114;-36
2022/03/05 06:42:26;;;;;;;38.95;21.38;;;;;;;-1.36;89.38;102096.03;5136354;27;20102;-35
2022/03/05 06:44:52;;;;;;;32.47;18.52;;;;;;;-1.27;89.72;102096.25;5135618;27;20118;-36
2022/03/05 06:47:17;;;;;;;31.13;18.77;;;;;;;-1.22;89.41;102094.06;5135954;27;20387;-35
2022/03/05 06:49:43;;;;;;;30.75;19.40;;;;;;;-1.17;89.10;102100.72;5136079;27;20407;-35
2022/03/05 06:52:10;;;;;;;33.13;19.95;;;;;;;-1.16;88.75;102105.03;5135971;27;20386;-35
2022/03/05 06:54:36;;;;;;;31.15;19.55;;;;;;;-1.13;89.33;102106.59;5136377;27;20023;-36
2022/03/05 06:57:01;;;;;;;31.33;20.42;;;;;;;-1.17;89.30;102091.88;5135770;27;20023;-35
2022/03/05 06:59:27;;;;;;;33.30;20.33;;;;;;;-1.14;89.49;102096.94;5135859;27;20034;-35
2022/03/05 07:01:52;;;;;;;34.33;21.13;;;;;;;-1.17;89.13;102099.84;5135473;27;20260;-35
2022/03/05 07:04:17;;;;;;;32.27;18.83;;;;;;;-1.04;88.65;102114.66;5136082;27;20031;-42
2022/03/05 07:06:43;;;;;;;30.57;18.67;;;;;;;-0.99;88.76;102114.28;5135540;27;20384;-35
2022/03/05 07:09:08;;;;;;;35.13;19.63;;;;;;;-0.89;89.88;102107.25;5135068;27;20110;-35
2022/03/05 07:11:33;;;;;;;33.37;18.43;;;;;;;-0.77;89.92;102118.69;5135835;27;20153;-35
2022/03/05 07:13:59;;;;;;;33.40;20.80;;;;;;;-0.71;89.35;102109.38;5135386;27;20024;-35
2022/03/05 07:16:24;;;;;;;33.83;20.33;;;;;;;-0.67;88.34;102118.78;5135056;27;20027;-35
2022/03/05 07:18:50;;;;;;;34.10;20.73;;;;;;;-0.73;88.13;102113.97;5135052;27;20023;-35
2022/03/05 07:21:15;;;;;;;35.23;20.70;;;;;;;-0.60;88.30;102126.09;5135012;27;20023;-35
2022/03/05 07:23:41;;;;;;;35.47;21.98;;;;;;;-0.61;88.05;102118.28;5134783;27;20420;-35
2022/03/05 07:26:06;;;;;;;34.57;20.77;;;;;;;-0.49;87.79;102133.19;5133682;27;20050;-35
2022/03/05 07:28:32;;;;;;;36.90;22.43;;;;;;;-0.61;88.10;102115.63;5135417;27;20038;-35
2022/03/05 07:30:57;;;;;;;37.13;21.90;;;;;;;-0.61;87.52;102128.91;5135695;27;20020;-35
2022/03/05 07:33:23;;;;;;;40.23;22.47;;;;;;;-0.55;87.75;102128.38;5134608;27;20109;-35
2022/03/05 07:35:48;;;;;;;34.72;20.75;;;;;;;-0.55;88.40;102123.06;5135568;27;20019;-35
2022/03/05 07:38:14;;;;;;;36.47;21.87;;;;;;;-0.71;88.09;102101.41;5134549;27;20047;-35
2022/03/05 07:40:39;;;;;;;38.03;22.13;;;;;;;-0.52;88.14;102128.16;5133543;27;20119;-35
2022/03/05 07:43:04;;;;;;;34.37;20.57;;;;;;;-0.34;88.63;102131.06;5135298;27;20462;-35
2022/03/05 07:45:30;;;;;;;31.97;20.73;;;;;;;-0.27;88.24;102125.13;5134510;27;20058;-35
2022/03/05 07:47:55;;;;;;;35.03;20.87;;;;;;;-0.21;87.61;102118.44;5134735;27;20027;-35
2022/03/05 07:50:21;;;;;;;34.63;21.37;;;;;;;-0.03;86.51;102122.19;5133708;27;20037;-35
2022/03/05 07:52:46;;;;;;;37.92;22.30;;;;;;;-0.16;86.71;102128.69;5134152;27;20110;-35
2022/03/05 07:55:12;;;;;;;36.60;21.77;;;;;;;-0.21;87.51;102128.22;5134337;27;20048;-35
2022/03/05 07:57:37;;;;;;;33.73;20.37;;;;;;;-0.07;87.21;102135.88;5134148;27;20026;-35
2022/03/05 08:00:05;;;;;;;38.33;21.97;;;;;;;-0.03;86.36;102142.63;5134387;27;20039;-36
2022/03/05 08:02:31;;;;;;;36.50;21.02;;;;;;;0.00;86.40;102139.72;5134381;27;20026;-36
2022/03/05 08:04:57;;;;;;;39.20;21.67;;;;;;;0.16;86.12;102145.41;5134158;27;20027;-36
2022/03/05 08:07:23;;;;;;;34.67;21.13;;;;;;;0.18;85.54;102143.47;5134078;27;20027;-35
2022/03/05 08:09:48;;;;;;;35.75;21.33;;;;;;;0.28;85.74;102148.84;5134301;27;20058;-36
2022/03/05 08:12:14;;;;;;;35.40;20.02;;;;;;;0.28;85.96;102145.34;5133938;27;20493;-36
2022/03/05 08:14:41;;;;;;;35.80;20.67;;;;;;;0.32;85.54;102149.41;5134791;27;20505;-36
2022/03/05 08:17:07;;;;;;;34.83;22.05;;;;;;;0.33;84.74;102161.75;5134073;27;20020;-36
2022/03/05 08:19:32;;;;;;;36.40;21.47;;;;;;;0.49;85.60;102154.97;5134310;27;20031;-36
2022/03/05 08:21:57;;;;;;;35.13;20.80;;;;;;;0.54;84.68;102151.91;5134251;27;20475;-36
2022/03/05 08:24:23;;;;;;;37.43;20.63;;;;;;;0.49;84.45;102140.84;5133997;27;20395;-36
2022/03/05 08:26:48;;;;;;;35.67;20.60;;;;;;;0.65;84.54;102157.13;5133730;27;20110;-36
2022/03/05 08:29:13;;;;;;;37.77;23.07;;;;;;;0.54;83.81;102157.25;5134426;27;20110;-36
2022/03/05 08:31:39;;;;;;;35.17;22.27;;;;;;;0.65;83.42;102157.13;5134541;27;20054;-36
2022/03/05 08:34:04;;;;;;;34.70;20.80;;;;;;;0.73;83.25;102160.00;5134548;27;20042;-36
2022/03/05 08:36:30;;;;;;;34.75;20.48;;;;;;;0.85;83.13;102155.38;5134379;27;20083;-36
2022/03/05 08:38:56;;;;;;;34.78;21.05;;;;;;;1.08;82.94;102164.00;5133635;27;20024;-36
2022/03/05 08:41:22;;;;;;;35.08;22.58;;;;;;;1.05;81.80;102164.28;5134378;27;20110;-36
2022/03/05 08:43:47;;;;;;;36.58;20.80;;;;;;;1.20;82.28;102164.72;5134027;27;20086;-36
2022/03/05 08:46:12;;;;;;;34.83;19.93;;;;;;;1.34;82.90;102169.66;5134132;27;20419;-36
2022/03/05 08:48:38;;;;;;;34.30;20.20;;;;;;;1.43;82.38;102174.16;5133576;27;20479;-36
2022/03/05 08:51:03;;;;;;;33.73;20.67;;;;;;;1.41;80.88;102153.94;5134362;27;20428;-36
2022/03/05 08:53:29;;;;;;;35.17;21.17;;;;;;;1.47;81.85;102164.06;5133714;27;20456;-36
2022/03/05 08:55:54;;;;;;;32.67;20.25;;;;;;;1.48;81.46;102152.41;5134521;27;20035;-36
2022/03/05 08:58:21;;;;;;;35.53;20.60;;;;;;;1.65;80.67;102162.38;5133646;27;20054;-36
2022/03/05 09:00:47;;;;;;;41.25;22.73;;;;;;;1.62;80.28;102156.50;5133739;27;20481;-36
2022/03/05 09:03:12;;;;;;;37.75;22.70;;;;;;;1.58;80.02;102163.94;5137901;27;20033;-36
2022/03/05 09:05:37;;;;;;;36.20;21.87;;;;;;;1.61;80.24;102155.66;5137860;27;20031;-36
2022/03/05 09:08:03;;;;;;;32.60;20.47;;;;;;;1.74;80.14;102161.53;5137421;27;20070;-36
2022/03/05 09:10:29;;;;;;;32.22;19.23;;;;;;;1.89;79.44;102158.44;5137726;27;20101;-36
2022/03/05 09:12:55;;;;;;;32.20;20.65;;;;;;;2.02;79.04;102154.50;5137643;27;20031;-36
2022/03/05 09:15:20;;;;;;;30.23;19.05;;;;;;;2.18;77.97;102148.56;5137550;27;20035;-36
2022/03/05 09:17:45;;;;;;;32.90;20.13;;;;;;;2.15;77.49;102146.19;5137266;27;20019;-36
2022/03/05 09:20:11;;;;;;;31.67;19.37;;;;;;;2.18;78.01;102127.22;5138140;27;20023;-36
2022/03/05 09:22:36;;;;;;;30.83;20.25;;;;;;;2.50;78.14;102148.19;5137654;27;20114;-36
2022/03/05 09:25:02;;;;;;;32.03;20.57;;;;;;;2.42;76.72;102131.22;5138076;27;20034;-36
2022/03/05 09:27:28;;;;;;;32.35;20.48;;;;;;;2.50;76.82;102147.34;5137780;27;20054;-36
2022/03/05 09:29:54;;;;;;;32.63;19.10;;;;;;;2.50;76.50;102126.00;5137784;27;20123;-36
2022/03/05 09:32:19;;;;;;;30.80;19.57;;;;;;;2.75;76.16;102149.34;5137371;27;20030;-36
2022/03/05 09:34:45;;;;;;;29.67;19.13;;;;;;;2.82;75.36;102129.06;5137784;27;20272;-36
2022/03/05 09:37:10;;;;;;;34.80;20.73;;;;;;;2.86;74.42;102142.13;5137226;27;20348;-36
2022/03/05 09:39:37;;;;;;;28.67;19.10;;;;;;;3.07;75.23;102140.03;5137430;27;20142;-36
2022/03/05 09:42:06;;;;;;;30.13;19.80;;;;;;;3.22;74.11;102138.53;5136807;27;20027;-36
2022/03/05 09:44:32;;;;;;;28.48;18.17;;;;;;;3.35;73.79;102130.13;5137110;27;20043;-36
2022/03/05 09:46:59;;;;;;;37.95;20.00;;;;;;;3.50;74.04;102133.13;5137375;27;20035;-36
2022/03/05 09:49:27;;;;;;;31.73;18.67;;;;;;;3.51;73.25;102134.78;5137390;27;20031;-36
2022/03/05 09:51:53;;;;;;;30.65;19.55;;;;;;;3.56;72.53;102141.38;5137042;27;20042;-37
2022/03/05 09:54:19;;;;;;;32.60;20.48;;;;;;;3.71;72.95;102141.69;5137772;27;20420;-36
2022/03/05 09:56:44;;;;;;;29.23;19.55;;;;;;;3.80;72.71;102140.72;5137140;27;20118;-36
2022/03/05 09:59:10;;;;;;;29.10;19.33;;;;;;;3.99;72.49;102141.53;5137503;27;20020;-36
2022/03/05 10:01:36;;;;;;;32.28;20.23;;;;;;;3.99;72.08;102139.69;5137061;27;20333;-35
2022/03/05 10:04:02;;;;;;;28.80;18.50;;;;;;;4.01;70.97;102132.38;5136696;27;20023;-35
2022/03/05 10:06:28;;;;;;;32.38;19.48;;;;;;;4.18;72.54;102136.00;5137513;27;20118;-36
2022/03/05 10:08:55;;;;;;;30.52;20.05;;;;;;;4.35;70.67;102143.16;5136707;27;20106;-36
2022/03/05 10:11:25;;;;;;;30.60;21.50;;;;;;;4.15;68.64;102141.69;5137150;27;20016;-36
2022/03/05 10:13:50;;;;;;;29.50;19.63;;;;;;;4.05;68.00;102141.78;5136393;27;20030;-36
2022/03/05 10:16:24;;;;;;;29.48;18.35;;;;;;;4.31;70.46;102127.53;5137057;27;20023;-36
2022/03/05 10:18:50;;;;;;;28.25;19.00;;;;;;;4.56;69.86;102144.59;5136768;27;20066;-35
2022/03/05 10:21:16;;;;;;;25.20;17.42;;;;;;;4.77;69.53;102138.81;5137317;27;20019;-35
2022/03/05 10:23:47;;;;;;;30.67;19.02;;;;;;;4.91;69.02;102131.00;5137090;27;20076;-36
2022/03/05 10:26:14;;;;;;;29.73;19.40;;;;;;;4.71;67.30;102132.25;5136408;27;20041;-36
2022/03/05 10:28:40;;;;;;;30.40;21.13;;;;;;;4.90;68.00;102132.00;5136090;27;20027;-36
2022/03/05 10:31:08;;;;;;;33.60;20.53;;;;;;;5.08;67.72;102139.13;5137300;27;20119;-36
2022/03/05 10:33:38;;;;;;;30.45;19.13;;;;;;;5.25;67.63;102135.44;5136011;27;20764;-35
2022/03/05 10:36:05;;;;;;;26.98;19.52;;;;;;;5.27;67.04;102121.88;5136473;27;20039;-36
2022/03/05 10:38:53;;;;;;;28.63;20.05;;;;;;;5.46;66.29;102132.28;5136262;27;20035;-36
2022/03/05 10:41:34;;;;;;;35.20;20.80;;;;;;;5.47;66.27;102133.16;5136369;27;20037;-36
2022/03/05 10:44:31;;;;;;;31.13;20.02;;;;;;;5.64;66.76;102129.47;5136272;27;20047;-36
2022/03/05 10:46:59;;;;;;;29.38;19.80;;;;;;;5.68;64.64;102136.19;5133006;27;20047;-36
2022/03/05 10:49:36;;;;;;;32.55;21.08;;;;;;;5.52;63.98;102125.44;5135739;27;20364;-36
2022/03/05 10:52:06;;;;;;;32.47;21.77;;;;;;;5.52;65.98;102144.22;5135541;27;20386;-36
2022/03/05 10:54:39;;;;;;;32.60;22.38;;;;;;;5.22;64.69;102138.47;5136535;27;20073;-35
2022/03/05 10:57:11;;;;;;;30.58;21.75;;;;;;;5.36;65.00;102143.19;5135604;27;20118;-36
2022/03/05 10:59:42;;;;;;;30.80;20.60;;;;;;;5.58;64.18;102136.34;5136075;27;20027;-36
2022/03/05 11:02:09;;;;;;;29.58;19.15;;;;;;;5.84;63.37;102143.38;5135933;27;20462;-36
2022/03/05 11:04:35;;;;;;;28.98;20.13;;;;;;;6.06;65.06;102145.44;5135891;27;20371;-36
2022/03/05 11:07:02;;;;;;;26.95;19.30;;;;;;;6.11;62.42;102139.56;5135649;27;20027;-36
2022/03/05 11:09:28;;;;;;;;;;;;;;;6.26;62.65;102143.22;5136293;27;20118;-36
2022/03/05 11:11:55;;;;;;;24.70;17.95;;;;;;;6.22;61.02;102143.72;5135687;27;19911;-36